Time;durP1;ratioP1;P1;durP2;ratioP2;P2;SDS_P1;SDS_P2;PMS_P1;PMS_P2;Temp;Humidity;BMP_temperature;BMP_pressure;BME280_temperature;BME280_humidity;BME280_pressure;Samples;Min_cycle;Max_cycle;Signal;HPM_P1;HPM_P2
2021/11/21 00:01:58;;;;;;;19.23;9.98;;;3.70;99.90;;;;;;5011525;28;20491;-81
2021/11/21 00:04:24;;;;;;;16.83;9.23;;;3.70;99.90;;;;;;5014270;28;20048;-80
2021/11/21 00:06:50;;;;;;;17.98;8.52;;;3.70;99.90;;;;;;5014385;28;20106;-80
2021/11/21 00:09:16;;;;;;;17.88;8.25;;;3.70;99.90;;;;;;5016284;28;20038;-80
2021/11/21 00:11:42;;;;;;;16.75;8.30;;;3.70;99.90;;;;;;5017864;28;20028;-81
2021/11/21 00:14:07;;;;;;;17.92;8.80;;;3.70;99.90;;;;;;5031348;28;20030;-80
2021/11/21 00:16:34;;;;;;;15.68;8.40;;;3.70;99.90;;;;;;5020168;28;20029;-80
2021/11/21 00:19:00;;;;;;;16.05;8.02;;;3.70;99.90;;;;;;5015212;28;20037;-80
2021/11/21 00:21:26;;;;;;;15.55;8.45;;;3.70;99.90;;;;;;5016191;28;20040;-80
2021/11/21 00:23:52;;;;;;;16.65;8.80;;;3.70;99.90;;;;;;5016650;28;20033;-80
2021/11/21 00:26:18;;;;;;;12.20;6.80;;;3.70;99.90;;;;;;5028437;28;20060;-80
2021/11/21 00:28:44;;;;;;;15.52;7.63;;;3.70;99.90;;;;;;5012818;28;20033;-80
2021/11/21 00:31:10;;;;;;;12.27;6.88;;;3.70;99.90;;;;;;5015300;28;20030;-80
2021/11/21 00:33:36;;;;;;;14.50;7.68;;;3.60;99.90;;;;;;5017362;28;20025;-81
2021/11/21 00:36:02;;;;;;;15.15;7.53;;;3.60;99.90;;;;;;5030916;28;20055;-80
2021/11/21 00:38:28;;;;;;;10.65;6.45;;;3.60;99.90;;;;;;5014871;28;20448;-81
2021/11/21 00:40:54;;;;;;;14.05;7.22;;;3.50;99.90;;;;;;5015047;28;20191;-81
2021/11/21 00:43:21;;;;;;;12.68;7.82;;;3.50;99.90;;;;;;5013101;28;20048;-80
2021/11/21 00:45:47;;;;;;;14.75;7.22;;;3.40;99.90;;;;;;5015822;28;20044;-81
2021/11/21 00:48:23;;;;;;;14.65;7.30;;;3.40;99.90;;;;;;5015183;28;20044;-80
2021/11/21 00:50:57;;;;;;;10.68;5.60;;;3.40;99.90;;;;;;5013607;28;20486;-81
2021/11/21 00:53:23;;;;;;;9.65;5.90;;;3.40;99.90;;;;;;5014511;28;20105;-80
2021/11/21 00:58:17;;;;;;;12.32;6.55;;;3.40;99.90;;;;;;5014638;28;20033;-80
2021/11/21 01:00:48;;;;;;;12.13;6.47;;;3.40;99.90;;;;;;5011641;28;20048;-80
2021/11/21 01:03:19;;;;;;;11.52;6.43;;;3.30;99.90;;;;;;5017659;28;20120;-81
2021/11/21 01:05:46;;;;;;;9.10;6.18;;;3.20;99.90;;;;;;5019501;28;20526;-81
2021/11/21 01:08:12;;;;;;;6.10;4.88;;;3.20;99.90;;;;;;5029187;28;20026;-81
2021/11/21 01:10:40;;;;;;;7.88;5.40;;;3.20;99.90;;;;;;5013062;28;20041;-81
2021/11/21 01:13:06;;;;;;;8.27;5.63;;;3.20;99.90;;;;;;5016583;28;20041;-81
2021/11/21 01:15:33;;;;;;;8.55;5.90;;;3.10;99.90;;;;;;5016359;28;20022;-81
2021/11/21 01:18:00;;;;;;;11.63;6.50;;;3.10;99.90;;;;;;5014847;28;20033;-81
2021/11/21 01:20:30;;;;;;;8.20;5.43;;;3.10;99.90;;;;;;5029320;28;20071;-81
2021/11/21 01:22:56;;;;;;;8.95;5.22;;;3.00;99.90;;;;;;5012944;28;20034;-81
2021/11/21 01:25:22;;;;;;;7.43;4.55;;;3.00;99.90;;;;;;5028750;28;20053;-81
2021/11/21 01:27:48;;;;;;;6.30;5.40;;;2.90;99.90;;;;;;5017627;28;20080;-81
2021/11/21 01:30:17;;;;;;;8.07;4.88;;;2.90;99.90;;;;;;5016450;28;20089;-81
2021/11/21 01:32:44;;;;;;;11.68;6.20;;;2.90;99.90;;;;;;5029121;28;20464;-81
2021/11/21 01:35:10;;;;;;;8.30;5.22;;;2.90;99.90;;;;;;5043188;28;20129;-81
2021/11/21 01:37:36;;;;;;;8.25;5.00;;;2.90;99.90;;;;;;5016157;28;20040;-81
2021/11/21 01:40:04;;;;;;;9.00;5.43;;;2.90;99.90;;;;;;5015167;28;20030;-81
2021/11/21 01:42:30;;;;;;;9.18;5.80;;;2.80;99.90;;;;;;5017812;28;20565;-81
2021/11/21 01:44:56;;;;;;;9.45;5.32;;;2.90;99.90;;;;;;5014759;28;20030;-81
2021/11/21 01:47:21;;;;;;;8.70;6.03;;;2.80;99.90;;;;;;5012362;28;20116;-81
2021/11/21 01:49:47;;;;;;;7.53;5.45;;;2.80;99.90;;;;;;5014881;28;20026;-81
2021/11/21 01:52:13;;;;;;;9.00;5.68;;;2.80;99.90;;;;;;5011941;28;20026;-81
2021/11/21 01:54:38;;;;;;;9.55;6.32;;;2.80;99.90;;;;;;5013753;28;20025;-81
2021/11/21 01:57:04;;;;;;;7.90;5.53;;;2.80;99.90;;;;;;5017645;28;20048;-81
2021/11/21 01:59:31;;;;;;;8.68;6.45;;;2.90;99.90;;;;;;5016050;28;20029;-81
2021/11/21 02:01:56;;;;;;;8.80;5.55;;;2.80;99.90;;;;;;5014691;28;20037;-81
2021/11/21 02:04:22;;;;;;;10.10;6.72;;;2.70;99.90;;;;;;5030867;28;20049;-81
2021/11/21 02:06:48;;;;;;;10.60;6.38;;;2.70;99.90;;;;;;5015958;28;20533;-81
2021/11/21 02:09:14;;;;;;;9.55;5.82;;;2.80;99.90;;;;;;5016863;28;20050;-81
2021/11/21 02:11:40;;;;;;;11.27;6.47;;;2.80;99.90;;;;;;5018580;28;20053;-81
2021/11/21 02:14:05;;;;;;;11.70;7.25;;;2.70;99.90;;;;;;5020072;28;20025;-81
2021/11/21 02:16:32;;;;;;;10.43;6.68;;;2.70;99.90;;;;;;5021103;28;20042;-81
2021/11/21 02:18:59;;;;;;;10.93;6.72;;;2.70;99.90;;;;;;5016624;28;20036;-81
2021/11/21 02:21:25;;;;;;;10.80;6.60;;;2.70;99.90;;;;;;5018225;28;20029;-81
2021/11/21 02:23:51;;;;;;;9.32;6.03;;;2.70;99.90;;;;;;5019347;28;20176;-81
2021/11/21 02:26:18;;;;;;;13.05;6.80;;;2.70;99.90;;;;;;5031497;28;20040;-81
2021/11/21 02:28:46;;;;;;;9.90;5.63;;;2.80;99.90;;;;;;5015767;28;21664;-82
2021/11/21 02:31:13;;;;;;;13.80;7.30;;;2.70;99.90;;;;;;5014398;28;20041;-82
2021/11/21 02:33:39;;;;;;;14.07;5.97;;;2.70;99.90;;;;;;5018112;28;20052;-81
2021/11/21 02:36:05;;;;;;;12.35;6.43;;;2.70;99.90;;;;;;5015472;28;20573;-81
2021/11/21 02:38:33;;;;;;;11.60;6.70;;;2.70;99.90;;;;;;5017264;28;20546;-81
2021/11/21 02:41:00;;;;;;;13.10;7.07;;;2.70;99.90;;;;;;5034562;28;20030;-81
2021/11/21 02:43:26;;;;;;;12.55;6.57;;;2.70;99.90;;;;;;5016030;28;20056;-81
2021/11/21 02:45:54;;;;;;;11.73;6.55;;;2.70;99.90;;;;;;5022567;28;20029;-81
2021/11/21 02:48:22;;;;;;;13.60;7.05;;;2.60;99.90;;;;;;5036712;28;20107;-82
2021/11/21 02:50:48;;;;;;;12.65;7.15;;;2.60;99.90;;;;;;5017498;28;20065;-81
2021/11/21 02:53:19;;;;;;;14.43;7.28;;;2.70;99.90;;;;;;5025344;28;20021;-82
2021/11/21 02:55:46;;;;;;;12.07;6.70;;;2.70;99.90;;;;;;5019330;28;20026;-82
2021/11/21 02:58:12;;;;;;;13.25;6.65;;;2.70;99.90;;;;;;5032308;28;20029;-82
2021/11/21 03:00:40;;;;;;;12.98;6.78;;;2.70;99.90;;;;;;5038390;28;20045;-82
2021/11/21 03:03:06;;;;;;;13.15;7.95;;;2.70;99.90;;;;;;5019986;28;20077;-82
2021/11/21 03:05:33;;;;;;;13.32;7.20;;;2.70;99.90;;;;;;5015821;28;20136;-81
2021/11/21 03:08:00;;;;;;;12.73;6.90;;;2.60;99.90;;;;;;5017508;28;20065;-81
2021/11/21 03:10:27;;;;;;;12.98;7.10;;;2.70;99.90;;;;;;5016309;28;20511;-82
2021/11/21 03:12:57;;;;;;;8.52;6.50;;;2.60;99.90;;;;;;5018630;28;20509;-82
2021/11/21 03:15:23;;;;;;;11.82;6.28;;;2.60;99.90;;;;;;5030290;28;20109;-81
2021/11/21 03:17:49;;;;;;;11.07;6.40;;;2.60;99.90;;;;;;5034423;28;20025;-81
2021/11/21 03:20:18;;;;;;;13.68;7.53;;;2.60;99.90;;;;;;5015572;28;20026;-81
2021/11/21 03:22:43;;;;;;;;;;;2.60;99.90;;;;;;5017040;28;20057;-81
2021/11/21 03:25:11;;;;;;;12.20;6.28;;;2.60;99.90;;;;;;5015620;28;19913;-81
2021/11/21 03:27:37;;;;;;;14.45;7.43;;;2.70;99.90;;;;;;5013947;28;20025;-81
2021/11/21 03:30:12;;;;;;;14.05;6.90;;;2.70;99.90;;;;;;5020472;28;20134;-81
2021/11/21 03:32:38;;;;;;;9.98;6.25;;;2.70;99.90;;;;;;5016674;28;20196;-82
2021/11/21 03:35:05;;;;;;;14.77;8.05;;;2.70;99.90;;;;;;5017973;28;20470;-81
2021/11/21 03:37:31;;;;;;;11.70;7.47;;;2.70;99.90;;;;;;5021268;28;20033;-81
2021/11/21 03:39:57;;;;;;;11.40;6.05;;;2.70;99.90;;;;;;5015218;28;20425;-81
2021/11/21 03:42:22;;;;;;;14.30;7.30;;;2.70;99.90;;;;;;5014507;28;20026;-81
2021/11/21 03:44:48;;;;;;;11.80;6.38;;;2.70;99.90;;;;;;5016734;28;20037;-81
2021/11/21 03:47:14;;;;;;;14.45;7.90;;;2.70;99.90;;;;;;5019314;28;20057;-82
2021/11/21 03:49:40;;;;;;;14.95;8.45;;;2.70;99.90;;;;;;5029617;28;20033;-81
2021/11/21 03:52:06;;;;;;;12.23;6.60;;;2.70;99.90;;;;;;5016884;28;20446;-81
2021/11/21 03:54:32;;;;;;;14.27;6.90;;;2.70;99.90;;;;;;5018114;28;20056;-82
2021/11/21 03:56:58;;;;;;;17.38;8.65;;;2.70;99.90;;;;;;5017554;28;20036;-82
2021/11/21 03:59:24;;;;;;;13.95;7.85;;;2.80;99.90;;;;;;5016127;28;20026;-82
2021/11/21 04:01:50;;;;;;;14.05;7.32;;;2.80;99.90;;;;;;5013060;28;20105;-82
2021/11/21 04:04:18;;;;;;;13.05;7.57;;;2.80;99.90;;;;;;5014852;28;20146;-82
2021/11/21 04:06:44;;;;;;;12.40;7.00;;;2.80;99.90;;;;;;5031125;28;20496;-82
2021/11/21 04:09:09;;;;;;;14.82;8.27;;;2.80;99.90;;;;;;5017881;28;20038;-81
2021/11/21 04:11:35;;;;;;;16.65;7.75;;;2.80;99.90;;;;;;5019458;28;20032;-81
2021/11/21 04:14:01;;;;;;;13.32;6.95;;;2.80;99.90;;;;;;5038648;28;20029;-82
2021/11/21 04:16:27;;;;;;;13.82;7.78;;;2.80;99.90;;;;;;5023643;28;20049;-82
2021/11/21 04:18:54;;;;;;;16.00;8.27;;;2.80;99.90;;;;;;5027559;28;20360;-82
2021/11/21 04:21:19;;;;;;;13.38;7.95;;;2.80;99.90;;;;;;5026439;28;20571;-82
2021/11/21 04:23:45;;;;;;;12.13;6.82;;;2.80;99.90;;;;;;5037851;28;20029;-82
2021/11/21 04:26:11;;;;;;;16.42;8.82;;;2.80;99.90;;;;;;5020750;28;20033;-82
2021/11/21 04:28:37;;;;;;;10.77;7.20;;;2.80;99.90;;;;;;5019514;28;20091;-82
2021/11/21 04:31:04;;;;;;;14.77;8.30;;;2.80;99.90;;;;;;5034535;28;20033;-82
2021/11/21 04:33:30;;;;;;;15.88;8.50;;;2.80;99.90;;;;;;5021108;28;20022;-82
2021/11/21 04:35:56;;;;;;;11.98;7.15;;;2.80;99.90;;;;;;5026793;28;20083;-81
2021/11/21 04:38:23;;;;;;;12.82;7.25;;;2.80;99.90;;;;;;5041904;28;20057;-82
2021/11/21 04:40:51;;;;;;;13.97;7.87;;;2.80;99.90;;;;;;5036999;28;20040;-82
2021/11/21 04:43:18;;;;;;;13.43;7.65;;;2.80;99.90;;;;;;5037009;28;20034;-82
2021/11/21 04:45:45;;;;;;;14.60;7.55;;;2.80;99.90;;;;;;5040190;28;20056;-82
2021/11/21 04:48:11;;;;;;;17.58;8.15;;;2.80;99.90;;;;;;5017448;28;20029;-82
2021/11/21 04:50:37;;;;;;;14.68;7.93;;;2.80;99.90;;;;;;5016218;28;20018;-82
2021/11/21 04:53:05;;;;;;;15.07;8.20;;;2.80;99.90;;;;;;5023003;28;20025;-82
2021/11/21 04:55:31;;;;;;;12.10;7.70;;;2.90;99.90;;;;;;5037481;28;20109;-82
2021/11/21 04:57:57;;;;;;;14.75;7.53;;;2.90;99.90;;;;;;5022653;28;20128;-81
2021/11/21 05:00:23;;;;;;;13.60;8.05;;;2.90;99.90;;;;;;5022476;28;20140;-82
2021/11/21 05:02:51;;;;;;;14.27;7.93;;;2.90;99.90;;;;;;5023173;28;20036;-81
2021/11/21 05:05:18;;;;;;;15.13;7.68;;;2.80;99.90;;;;;;5031947;28;20046;-81
2021/11/21 05:07:45;;;;;;;16.02;8.02;;;2.80;99.90;;;;;;5021384;28;20034;-81
2021/11/21 05:10:11;;;;;;;15.43;8.15;;;2.90;99.90;;;;;;5025340;28;20152;-81
2021/11/21 05:12:39;;;;;;;15.15;7.15;;;2.80;99.90;;;;;;5019454;28;20486;-81
2021/11/21 05:15:07;;;;;;;16.55;9.00;;;2.90;99.90;;;;;;5019689;28;20101;-81
2021/11/21 05:17:33;;;;;;;15.93;8.55;;;2.90;99.90;;;;;;5026166;28;20466;-81
2021/11/21 05:19:59;;;;;;;13.95;7.50;;;2.90;99.90;;;;;;5032866;28;20037;-81
2021/11/21 05:22:26;;;;;;;14.15;7.88;;;2.90;99.90;;;;;;5024679;28;20025;-81
2021/11/21 05:24:51;;;;;;;16.23;8.07;;;2.90;99.90;;;;;;5021172;28;20035;-81
2021/11/21 05:27:17;;;;;;;16.60;8.73;;;2.80;99.90;;;;;;5021853;28;20422;-81
2021/11/21 05:29:43;;;;;;;14.35;8.20;;;2.90;99.90;;;;;;5035614;28;20029;-81
2021/11/21 05:32:08;;;;;;;13.00;7.18;;;2.90;99.90;;;;;;5020549;28;20431;-81
2021/11/21 05:34:34;;;;;;;11.65;6.55;;;2.90;99.90;;;;;;5038125;28;20535;-81
2021/11/21 05:37:00;;;;;;;14.82;8.73;;;2.90;99.90;;;;;;5022883;28;20508;-82
2021/11/21 05:39:25;;;;;;;12.70;6.88;;;2.90;99.90;;;;;;5020588;28;20025;-82
2021/11/21 05:41:51;;;;;;;16.92;7.57;;;2.90;99.90;;;;;;5022119;28;20042;-82
2021/11/21 05:44:17;;;;;;;17.95;8.48;;;2.90;99.90;;;;;;5021979;28;20065;-82
2021/11/21 05:46:42;;;;;;;15.50;7.80;;;2.90;99.90;;;;;;5020410;28;20145;-82
2021/11/21 05:49:08;;;;;;;15.30;8.27;;;2.90;99.90;;;;;;5021975;28;20048;-82
2021/11/21 05:51:35;;;;;;;16.38;8.80;;;2.90;99.90;;;;;;5018729;28;20477;-82
2021/11/21 05:54:01;;;;;;;20.83;8.35;;;2.90;99.90;;;;;;5017293;28;20041;-82
2021/11/21 05:56:26;;;;;;;13.95;8.00;;;2.90;99.90;;;;;;5021880;28;20120;-82
2021/11/21 05:58:52;;;;;;;13.75;7.53;;;2.90;99.90;;;;;;5034866;28;20038;-82
2021/11/21 06:01:18;;;;;;;17.20;8.07;;;2.90;99.90;;;;;;5019864;28;20729;-82
2021/11/21 06:03:45;;;;;;;15.85;7.70;;;2.80;99.90;;;;;;5018851;28;20095;-82
2021/11/21 06:06:11;;;;;;;11.77;7.38;;;2.80;99.90;;;;;;5035836;28;20038;-82
2021/11/21 06:08:37;;;;;;;17.45;8.82;;;2.80;99.90;;;;;;5019702;28;20033;-82
2021/11/21 06:11:03;;;;;;;16.35;7.97;;;2.80;99.90;;;;;;5036388;28;20025;-82
2021/11/21 06:13:29;;;;;;;16.20;8.98;;;2.80;99.90;;;;;;5022075;28;20507;-82
2021/11/21 06:15:55;;;;;;;15.75;8.10;;;2.80;99.90;;;;;;5021353;28;20025;-82
2021/11/21 06:18:21;;;;;;;16.88;7.75;;;2.80;99.90;;;;;;5018411;28;20513;-82
2021/11/21 06:20:47;;;;;;;19.65;8.30;;;2.80;99.90;;;;;;5018817;28;20546;-82
2021/11/21 06:23:13;;;;;;;17.13;8.15;;;2.80;99.90;;;;;;5020932;28;20338;-81
2021/11/21 06:25:42;;;;;;;17.77;8.15;;;2.80;99.90;;;;;;5018500;28;20034;-81
2021/11/21 06:28:09;;;;;;;15.95;8.38;;;2.90;99.90;;;;;;5016509;28;20029;-81
2021/11/21 06:30:34;;;;;;;16.23;8.52;;;2.90;99.90;;;;;;5017923;28;20313;-81
2021/11/21 06:33:00;;;;;;;13.15;7.25;;;2.90;99.90;;;;;;5020591;28;20049;-81
2021/11/21 06:35:26;;;;;;;13.18;7.22;;;2.90;99.90;;;;;;5037819;28;20082;-81
2021/11/21 06:37:51;;;;;;;17.73;7.85;;;2.90;99.90;;;;;;5016311;28;20033;-82
2021/11/21 06:40:17;;;;;;;15.57;8.77;;;2.90;99.90;;;;;;5019658;28;20093;-82
2021/11/21 06:42:43;;;;;;;14.85;8.30;;;2.90;99.90;;;;;;5032520;28;20060;-81
2021/11/21 06:45:10;;;;;;;20.90;8.40;;;2.80;99.90;;;;;;5031362;28;20047;-81
2021/11/21 06:47:39;;;;;;;14.02;7.03;;;2.90;99.90;;;;;;5025845;28;20030;-81
2021/11/21 06:50:09;;;;;;;13.57;8.20;;;2.90;99.90;;;;;;5026296;28;20100;-81
2021/11/21 06:52:36;;;;;;;15.60;7.63;;;2.90;99.90;;;;;;5022100;28;20413;-81
2021/11/21 06:55:04;;;;;;;14.82;7.93;;;2.90;99.90;;;;;;5019568;28;20052;-81
2021/11/21 06:57:33;;;;;;;16.15;8.00;;;2.90;99.90;;;;;;5034767;28;20033;-81
2021/11/21 06:59:58;;;;;;;11.95;7.25;;;2.90;99.90;;;;;;5021416;28;20209;-81
2021/11/21 07:02:24;;;;;;;15.48;8.30;;;2.90;99.90;;;;;;5023162;28;20052;-81
2021/11/21 07:04:50;;;;;;;16.52;8.60;;;3.00;99.90;;;;;;5021205;28;20046;-81
2021/11/21 07:07:16;;;;;;;14.02;7.65;;;3.00;99.90;;;;;;5020436;28;20029;-81
2021/11/21 07:09:44;;;;;;;12.98;6.80;;;3.00;99.90;;;;;;5023368;28;20033;-81
2021/11/21 07:12:10;;;;;;;14.20;8.70;;;3.00;99.90;;;;;;5017907;28;20056;-81
2021/11/21 07:14:36;;;;;;;12.85;7.63;;;3.00;99.90;;;;;;5021636;28;20033;-82
2021/11/21 07:17:03;;;;;;;12.13;7.07;;;3.00;99.90;;;;;;5021993;28;20066;-82
2021/11/21 07:19:29;;;;;;;15.65;8.25;;;3.00;99.90;;;;;;5036644;28;20037;-82
2021/11/21 07:21:54;;;;;;;16.25;7.70;;;3.00;99.90;;;;;;5022301;28;20073;-82
2021/11/21 07:24:20;;;;;;;20.33;9.13;;;2.90;99.90;;;;;;5024783;28;20037;-82
2021/11/21 07:26:46;;;;;;;15.60;7.82;;;2.90;99.90;;;;;;5023151;28;20018;-82
2021/11/21 07:29:12;;;;;;;19.08;8.10;;;3.00;99.90;;;;;;5020980;28;21369;-82
2021/11/21 07:31:37;;;;;;;13.48;6.90;;;2.90;99.90;;;;;;5036745;28;20033;-82
2021/11/21 07:34:04;;;;;;;15.88;8.60;;;3.00;99.90;;;;;;5021086;28;20450;-82
2021/11/21 07:36:30;;;;;;;15.48;8.63;;;3.00;99.90;;;;;;5021273;28;20029;-82
2021/11/21 07:38:56;;;;;;;13.00;7.22;;;3.00;99.90;;;;;;5037402;28;20104;-81
2021/11/21 07:41:22;;;;;;;14.30;7.40;;;3.00;99.90;;;;;;5020367;28;20093;-81
2021/11/21 07:43:47;;;;;;;14.25;7.43;;;3.00;99.90;;;;;;5026273;28;20025;-82
2021/11/21 07:46:13;;;;;;;14.95;7.60;;;3.00;99.90;;;;;;5035541;28;20026;-82
2021/11/21 07:48:39;;;;;;;17.92;8.30;;;3.00;99.90;;;;;;5021636;28;20072;-82
2021/11/21 07:51:05;;;;;;;17.13;8.32;;;3.10;99.90;;;;;;5037522;28;20060;-82
2021/11/21 07:53:31;;;;;;;13.70;8.10;;;3.00;99.90;;;;;;5019141;28;20053;-82
2021/11/21 07:55:57;;;;;;;16.40;7.75;;;3.10;99.90;;;;;;5022815;28;20033;-82
2021/11/21 07:58:23;;;;;;;15.27;7.65;;;3.10;99.90;;;;;;5037268;28;20099;-82
2021/11/21 08:00:50;;;;;;;17.77;7.82;;;3.10;99.90;;;;;;5020966;28;20065;-81
2021/11/21 08:03:16;;;;;;;16.27;8.35;;;3.20;99.90;;;;;;5016753;28;20714;-81
2021/11/21 08:05:42;;;;;;;17.63;8.57;;;3.10;99.90;;;;;;5016211;28;20033;-81
2021/11/21 08:08:08;;;;;;;14.93;7.22;;;3.20;99.90;;;;;;5020756;28;20033;-81
2021/11/21 08:10:35;;;;;;;14.43;8.13;;;3.20;99.90;;;;;;5022358;28;20060;-81
2021/11/21 08:13:01;;;;;;;14.10;7.63;;;3.20;99.90;;;;;;5020215;28;20037;-81
2021/11/21 08:15:27;;;;;;;13.00;7.97;;;3.20;99.90;;;;;;5021045;28;20025;-81
2021/11/21 08:17:52;;;;;;;13.95;7.80;;;3.20;99.90;;;;;;5023988;28;20025;-81
2021/11/21 08:20:18;;;;;;;13.18;7.05;;;3.20;99.90;;;;;;5020330;28;20021;-81
2021/11/21 08:22:44;;;;;;;14.38;8.75;;;3.20;99.90;;;;;;5035804;28;20748;-81
2021/11/21 08:25:11;;;;;;;16.33;8.07;;;3.20;99.90;;;;;;5032975;28;20029;-81
2021/11/21 08:27:37;;;;;;;16.02;7.63;;;3.20;99.90;;;;;;5031921;28;20619;-81
2021/11/21 08:30:05;;;;;;;16.30;8.38;;;3.30;99.90;;;;;;5026469;28;20037;-81
2021/11/21 08:32:31;;;;;;;14.63;8.30;;;3.30;99.90;;;;;;5018852;28;20060;-79
2021/11/21 08:34:57;;;;;;;16.17;8.50;;;3.30;99.90;;;;;;5022636;28;20030;-79
2021/11/21 08:37:23;;;;;;;12.85;6.72;;;3.30;99.90;;;;;;5020719;28;20071;-81
2021/11/21 08:39:49;;;;;;;13.50;7.95;;;3.30;99.90;;;;;;5021357;28;20033;-81
2021/11/21 08:42:14;;;;;;;12.80;6.90;;;3.30;99.90;;;;;;5020965;28;20029;-82
2021/11/21 08:44:40;;;;;;;15.20;7.50;;;3.40;99.90;;;;;;5037669;28;20025;-82
2021/11/21 08:47:06;;;;;;;16.65;8.10;;;3.40;99.90;;;;;;5020534;28;20061;-81
2021/11/21 08:49:32;;;;;;;13.88;8.48;;;3.40;99.90;;;;;;5022184;28;21070;-82
2021/11/21 08:51:58;;;;;;;17.00;7.50;;;3.40;99.90;;;;;;5024723;28;20017;-82
2021/11/21 08:54:23;;;;;;;14.30;7.13;;;3.50;99.90;;;;;;5021319;28;20033;-82
2021/11/21 08:56:49;;;;;;;15.20;8.13;;;3.50;99.90;;;;;;5020116;28;20406;-82
2021/11/21 08:59:16;;;;;;;16.33;7.60;;;3.50;99.90;;;;;;5024935;28;20029;-82
2021/11/21 09:01:42;;;;;;;13.18;7.53;;;3.60;99.90;;;;;;5034137;28;20458;-81
2021/11/21 09:04:08;;;;;;;12.52;7.18;;;3.60;99.90;;;;;;5018059;28;20141;-81
2021/11/21 09:06:34;;;;;;;16.05;8.27;;;3.70;99.90;;;;;;5021599;28;20528;-81
2021/11/21 09:09:00;;;;;;;14.38;7.45;;;3.70;99.90;;;;;;5024983;28;20029;-81
2021/11/21 09:11:26;;;;;;;12.90;7.05;;;3.70;99.90;;;;;;5017321;28;20025;-81
2021/11/21 09:13:52;;;;;;;13.57;7.78;;;3.80;99.90;;;;;;5018164;28;20509;-81
2021/11/21 09:16:18;;;;;;;13.82;7.28;;;3.80;99.90;;;;;;5019941;28;20032;-81
2021/11/21 09:18:44;;;;;;;15.48;7.65;;;3.80;99.90;;;;;;5025872;28;20047;-81
2021/11/21 09:21:09;;;;;;;12.63;7.05;;;3.70;99.90;;;;;;5019886;28;20079;-81
2021/11/21 09:23:37;;;;;;;15.82;6.70;;;3.80;99.90;;;;;;5021941;28;20474;-81
2021/11/21 09:26:06;;;;;;;14.48;7.75;;;3.70;99.90;;;;;;5020717;28;20040;-81
2021/11/21 09:28:32;;;;;;;14.32;6.25;;;3.80;99.90;;;;;;5021155;28;20079;-81
2021/11/21 09:30:57;;;;;;;8.32;5.35;;;3.80;99.90;;;;;;5018754;28;20049;-81
2021/11/21 09:33:25;;;;;;;14.32;6.95;;;3.70;99.90;;;;;;5037533;28;20039;-81
2021/11/21 09:35:51;;;;;;;10.95;6.22;;;3.70;99.90;;;;;;5020448;28;20286;-81
2021/11/21 09:38:19;;;;;;;10.93;6.72;;;3.70;99.90;;;;;;5021358;28;20033;-81
2021/11/21 09:40:46;;;;;;;11.98;7.03;;;3.70;99.90;;;;;;5019466;28;20025;-82
2021/11/21 09:43:11;;;;;;;17.13;7.85;;;3.80;99.90;;;;;;5004246;28;20741;-82
2021/11/21 09:45:37;;;;;;;12.10;7.07;;;3.80;99.90;;;;;;5020109;28;20454;-82
2021/11/21 09:48:05;;;;;;;11.52;6.65;;;3.90;99.90;;;;;;5018164;28;20043;-82
2021/11/21 09:50:39;;;;;;;15.60;7.88;;;3.90;99.90;;;;;;5019581;28;20025;-82
2021/11/21 09:53:05;;;;;;;13.02;6.72;;;4.00;99.90;;;;;;5032829;28;20026;-82
2021/11/21 09:55:31;;;;;;;12.50;7.65;;;4.00;99.90;;;;;;5021072;28;20040;-82
2021/11/21 09:57:58;;;;;;;12.93;7.45;;;4.00;99.90;;;;;;5023599;28;20025;-82
2021/11/21 10:00:25;;;;;;;12.65;6.70;;;4.00;99.90;;;;;;5024389;28;20466;-82
2021/11/21 10:03:09;;;;;;;14.13;7.70;;;4.00;99.90;;;;;;5033990;28;20040;-82
2021/11/21 10:05:37;;;;;;;10.32;5.88;;;4.00;99.90;;;;;;5043752;28;20038;-82
2021/11/21 10:08:16;;;;;;;10.10;6.97;;;4.00;99.90;;;;;;5041688;28;20034;-81
2021/11/21 10:10:47;;;;;;;13.63;6.82;;;4.00;99.90;;;;;;5050203;28;20017;-81
2021/11/21 10:13:29;;;;;;;13.13;6.70;;;4.00;99.90;;;;;;5026964;28;20014;-81
2021/11/21 10:15:56;;;;;;;11.63;6.93;;;3.90;99.90;;;;;;5023317;28;20021;-81
2021/11/21 10:18:22;;;;;;;13.43;7.22;;;4.00;99.90;;;;;;5031520;28;20030;-81
2021/11/21 10:20:48;;;;;;;13.38;7.70;;;4.00;99.90;;;;;;5026298;28;20092;-82
2021/11/21 10:23:14;;;;;;;15.80;7.80;;;4.00;99.90;;;;;;5031026;28;20146;-82
2021/11/21 10:25:46;;;;;;;14.35;9.10;;;4.10;99.90;;;;;;5027320;28;20744;-81
2021/11/21 10:28:26;;;;;;;15.23;8.27;;;4.10;99.90;;;;;;5024938;28;20029;-81
2021/11/21 10:31:04;;;;;;;14.70;7.50;;;4.20;99.90;;;;;;5025682;28;20041;-81
2021/11/21 10:33:38;;;;;;;12.55;6.50;;;4.10;99.90;;;;;;5040767;28;20089;-81
2021/11/21 10:36:33;;;;;;;14.05;7.55;;;4.10;99.90;;;;;;5031274;28;20405;-82
2021/11/21 10:39:05;;;;;;;10.52;6.63;;;4.10;99.90;;;;;;5046907;28;20076;-81
2021/11/21 10:41:40;;;;;;;12.77;7.53;;;4.20;99.90;;;;;;5054216;28;20056;-81
2021/11/21 10:44:15;;;;;;;10.68;5.82;;;4.20;99.90;;;;;;5059280;28;20073;-81
2021/11/21 10:46:45;;;;;;;11.27;6.80;;;4.20;99.90;;;;;;5030424;28;20092;-82
2021/11/21 10:49:27;;;;;;;17.13;6.93;;;4.20;99.90;;;;;;5047977;28;20029;-82
2021/11/21 10:52:19;;;;;;;12.18;7.03;;;4.30;99.90;;;;;;5024572;28;20041;-81
2021/11/21 10:54:49;;;;;;;11.73;6.95;;;4.30;99.90;;;;;;5021528;28;20021;-81
2021/11/21 10:57:21;;;;;;;12.55;7.13;;;4.20;99.90;;;;;;5024084;28;20501;-81
2021/11/21 10:59:51;;;;;;;11.98;6.72;;;4.20;99.90;;;;;;5040895;28;20087;-81
2021/11/21 11:02:26;;;;;;;12.85;6.78;;;4.20;99.90;;;;;;5022899;28;20056;-82
2021/11/21 11:05:07;;;;;;;13.60;7.10;;;4.30;99.90;;;;;;5020653;28;20053;-81
2021/11/21 11:07:37;;;;;;;12.25;6.90;;;4.20;99.90;;;;;;5027610;28;20032;-81
2021/11/21 11:10:07;;;;;;;10.88;6.72;;;4.20;99.90;;;;;;5020084;28;20029;-81
2021/11/21 11:12:33;;;;;;;13.65;7.50;;;4.20;99.90;;;;;;5023832;28;20036;-81
2021/11/21 11:14:59;;;;;;;13.23;7.72;;;4.10;99.90;;;;;;5022925;28;20117;-81
2021/11/21 11:17:26;;;;;;;13.73;7.18;;;4.10;99.90;;;;;;5021003;28;20132;-82
2021/11/21 11:19:58;;;;;;;14.07;8.10;;;4.10;99.90;;;;;;5035926;28;20041;-82
2021/11/21 11:22:24;;;;;;;17.60;8.40;;;4.10;99.90;;;;;;5019085;28;20166;-82
2021/11/21 11:24:54;;;;;;;14.98;7.78;;;4.20;99.90;;;;;;5024012;28;20386;-82
2021/11/21 11:27:45;;;;;;;11.77;6.70;;;4.20;99.90;;;;;;5020177;28;20120;-82
2021/11/21 11:30:11;;;;;;;14.93;7.32;;;4.20;99.90;;;;;;5027876;28;20626;-81
2021/11/21 11:32:42;;;;;;;13.65;7.10;;;4.20;99.90;;;;;;5036379;28;20120;-81
2021/11/21 11:35:20;;;;;;;15.25;8.20;;;4.20;99.90;;;;;;5021113;28;20022;-82
2021/11/21 11:37:51;;;;;;;13.18;7.43;;;4.30;99.90;;;;;;5016620;28;20030;-81
2021/11/21 11:40:27;;;;;;;15.38;7.82;;;4.30;99.90;;;;;;5021488;28;20077;-81
2021/11/21 11:42:54;;;;;;;16.08;7.63;;;4.30;99.90;;;;;;5032603;28;20493;-82
2021/11/21 11:45:40;;;;;;;13.40;7.40;;;4.40;99.90;;;;;;5016633;28;20029;-81
2021/11/21 11:48:33;;;;;;;16.80;8.60;;;4.40;99.90;;;;;;5017069;28;20034;-81
2021/11/21 11:51:04;;;;;;;14.73;8.05;;;4.40;99.90;;;;;;5017014;28;20076;-82
2021/11/21 11:53:45;;;;;;;15.77;7.28;;;4.40;99.90;;;;;;5016843;28;20160;-82
2021/11/21 11:56:22;;;;;;;15.20;7.40;;;4.40;99.90;;;;;;5018488;28;20029;-81
2021/11/21 11:58:53;;;;;;;14.30;7.25;;;4.40;99.90;;;;;;5027469;28;20038;-81
2021/11/21 12:01:42;;;;;;;12.50;7.65;;;4.30;99.90;;;;;;5019657;28;20038;-81
2021/11/21 12:04:16;;;;;;;12.73;8.20;;;4.30;99.90;;;;;;5035397;28;20049;-81
2021/11/21 12:06:52;;;;;;;14.98;8.23;;;4.30;99.90;;;;;;5019145;28;20060;-81
2021/11/21 12:09:26;;;;;;;13.57;7.82;;;4.40;99.90;;;;;;5019890;28;20350;-82
2021/11/21 12:11:57;;;;;;;13.73;7.63;;;4.30;99.90;;;;;;5036168;28;20302;-82
2021/11/21 12:14:28;;;;;;;14.80;7.68;;;4.30;99.90;;;;;;5021567;28;20029;-82
2021/11/21 12:17:05;;;;;;;11.82;6.53;;;4.30;99.90;;;;;;5020549;28;20099;-82
2021/11/21 12:19:52;;;;;;;11.80;6.68;;;4.30;99.90;;;;;;5020032;28;20033;-82
2021/11/21 12:22:24;;;;;;;14.23;7.28;;;4.30;99.90;;;;;;5018149;28;20154;-82
2021/11/21 12:24:52;;;;;;;21.17;8.75;;;4.30;99.90;;;;;;5036437;28;20433;-82
2021/11/21 12:27:26;;;;;;;17.10;7.97;;;4.30;99.90;;;;;;5020321;28;20156;-81
2021/11/21 12:30:13;;;;;;;14.65;7.90;;;4.30;99.90;;;;;;5037575;28;20184;-82
2021/11/21 12:32:57;;;;;;;18.23;8.68;;;4.30;99.90;;;;;;5017586;28;20541;-81
2021/11/21 12:35:23;;;;;;;19.50;9.40;;;4.20;99.90;;;;;;5022567;28;20025;-81
2021/11/21 12:37:49;;;;;;;16.48;8.95;;;4.20;99.90;;;;;;5016241;28;20035;-81
2021/11/21 12:40:34;;;;;;;20.17;10.10;;;4.10;99.90;;;;;;5018621;28;20702;-81
2021/11/21 12:43:01;;;;;;;14.63;7.47;;;4.20;99.90;;;;;;5037022;28;20507;-82
2021/11/21 12:45:33;;;;;;;12.95;8.15;;;4.10;99.90;;;;;;5029847;28;20041;-82
2021/11/21 12:48:00;;;;;;;14.88;7.05;;;4.10;99.90;;;;;;5020341;28;20037;-82
2021/11/21 12:50:28;;;;;;;15.85;8.45;;;4.20;99.90;;;;;;5021046;28;20025;-82
2021/11/21 12:53:05;;;;;;;19.02;8.52;;;4.10;99.90;;;;;;5019016;28;20033;-81
2021/11/21 12:55:34;;;;;;;14.82;7.40;;;4.10;99.90;;;;;;5020301;28;20369;-81